Goodells, Michigan
Current Conditions -  °F | °C
As of 7:16 PM on Thursday 27 Nov 2014 (Local Time) from KPHN Reporting Station
Overcast Overcast  
Wind Chill: 17°   Ceiling: 3300
Heat Index: 27°   Visibility: 10mi
Dew Point: 18°   Wind: 9mph
Humidity: 69%   Direction: 300°WNW
Pressure: 30.24"   Gusts: NA
Location:  42.98°N, 82.67°W
Report Text: KPHN 280016Z AUTO 30008KT 10SM OVC033 M03/M08 A3024 RMK AO2
Loading
Personal Weather Stations






























Interactive Weather Map New forecast layout! Learn more

10-Day Weather Forecast

Advertisements
Track Severe Weather on mobile